Time;durP1;ratioP1;P1;durP2;ratioP2;P2;SDS_P1;SDS_P2;PMS_P1;PMS_P2;Temp;Humidity;BMP_temperature;BMP_pressure;BME280_temperature;BME280_humidity;BME280_pressure;Samples;Min_cycle;Max_cycle;Signal;HPM_P1;HPM_P2
2022/04/27 00:01:15;;;;;;;94.03;26.15;;;;;;;;;;5031803;28;20068;-45
2022/04/27 00:03:42;;;;;;;98.82;27.88;;;;;;;;;;5031727;28;20056;-45
2022/04/27 00:06:09;;;;;;;101.13;28.35;;;;;;;;;;5032553;28;20068;-44
2022/04/27 00:08:37;;;;;;;95.75;28.48;;;;;;;;;;5034488;28;20021;-47
2022/04/27 00:11:05;;;;;;;100.65;29.67;;;;;;;;;;5039826;28;20036;-44
2022/04/27 00:13:32;;;;;;;82.22;26.45;;;;;;;;;;5047324;28;20475;-43
2022/04/27 00:15:59;;;;;;;68.50;24.42;;;;;;;;;;5037592;28;20479;-43
2022/04/27 00:18:26;;;;;;;67.75;23.30;;;;;;;;;;5048471;28;20371;-43
2022/04/27 00:20:53;;;;;;;78.60;23.42;;;;;;;;;;5051761;28;20025;-44
2022/04/27 00:23:21;;;;;;;78.03;25.95;;;;;;;;;;5052315;28;20025;-43
2022/04/27 00:25:48;;;;;;;177.93;51.05;;;;;;;;;;5051780;28;20576;-43
2022/04/27 00:28:15;;;;;;;433.15;107.15;;;;;;;;;;5050472;28;20368;-44
2022/04/27 00:30:42;;;;;;;497.10;122.85;;;;;;;;;;5051758;28;20040;-43
2022/04/27 00:33:11;;;;;;;487.23;118.28;;;;;;;;;;5051921;28;20058;-45
2022/04/27 00:35:38;;;;;;;455.70;109.78;;;;;;;;;;5050681;28;20037;-43
2022/04/27 00:38:05;;;;;;;385.73;99.30;;;;;;;;;;5051737;28;20025;-43
2022/04/27 00:40:32;;;;;;;350.77;91.75;;;;;;;;;;5052012;28;20119;-45
2022/04/27 00:42:59;;;;;;;315.73;84.30;;;;;;;;;;5051648;28;20035;-44
2022/04/27 00:45:26;;;;;;;315.40;80.82;;;;;;;;;;5050681;28;20083;-43
2022/04/27 00:47:53;;;;;;;286.85;75.38;;;;;;;;;;5051824;28;20033;-44
2022/04/27 00:50:21;;;;;;;270.77;72.75;;;;;;;;;;5051261;28;20037;-43
2022/04/27 00:52:48;;;;;;;269.05;71.60;;;;;;;;;;5051976;28;20028;-44
2022/04/27 00:55:15;;;;;;;262.65;68.18;;;;;;;;;;5049835;28;20080;-43
2022/04/27 00:57:46;;;;;;;229.80;66.40;;;;;;;;;;5051604;28;20044;-44
2022/04/27 01:00:15;;;;;;;231.43;60.72;;;;;;;;;;5051388;28;20032;-43
2022/04/27 01:02:42;;;;;;;204.70;56.10;;;;;;;;;;5050839;28;20029;-43
2022/04/27 01:05:11;;;;;;;191.63;55.60;;;;;;;;;;5051362;28;20040;-41
2022/04/27 01:07:42;;;;;;;200.45;58.03;;;;;;;;;;5051083;28;20493;-41
2022/04/27 01:10:10;;;;;;;188.20;54.95;;;;;;;;;;5050992;28;20037;-41
2022/04/27 01:12:37;;;;;;;175.77;51.38;;;;;;;;;;5051492;28;20059;-41
2022/04/27 01:15:04;;;;;;;176.00;48.28;;;;;;;;;;5052162;28;20068;-42
2022/04/27 01:17:32;;;;;;;152.88;47.65;;;;;;;;;;5051584;28;20044;-41
2022/04/27 01:19:59;;;;;;;173.52;49.00;;;;;;;;;;5050878;28;20410;-41
2022/04/27 01:22:26;;;;;;;164.82;47.40;;;;;;;;;;5049771;28;20090;-41
2022/04/27 01:24:54;;;;;;;152.73;46.05;;;;;;;;;;5039524;28;20034;-41
2022/04/27 01:27:21;;;;;;;134.85;41.17;;;;;;;;;;5039295;28;20116;-41
2022/04/27 01:29:48;;;;;;;154.05;46.55;;;;;;;;;;5044120;28;20036;-41
2022/04/27 01:32:15;;;;;;;138.45;42.13;;;;;;;;;;5047784;28;20052;-41
2022/04/27 01:34:42;;;;;;;142.10;41.20;;;;;;;;;;5036910;28;20061;-42
2022/04/27 01:39:55;;;;;;;126.55;39.55;;;;;;;;;;5036260;28;20047;-42
2022/04/27 01:42:22;;;;;;;121.82;36.58;;;;;;;;;;5042987;28;20029;-41
2022/04/27 01:44:49;;;;;;;119.60;38.42;;;;;;;;;;5051322;28;20044;-41
2022/04/27 01:47:16;;;;;;;124.78;39.00;;;;;;;;;;5050937;28;20074;-41
2022/04/27 01:49:43;;;;;;;115.30;35.50;;;;;;;;;;5038632;28;20021;-41
2022/04/27 01:54:55;;;;;;;129.98;40.88;;;;;;;;;;5039913;28;20044;-41
2022/04/27 01:57:22;;;;;;;127.72;40.10;;;;;;;;;;5039741;28;20025;-41
2022/04/27 01:59:49;;;;;;;108.22;34.25;;;;;;;;;;5039430;28;20578;-41
2022/04/27 02:02:16;;;;;;;106.35;32.38;;;;;;;;;;5039072;28;20538;-41
2022/04/27 02:04:43;;;;;;;106.35;32.67;;;;;;;;;;5041503;28;20037;-41
2022/04/27 02:07:10;;;;;;;102.88;32.65;;;;;;;;;;5039030;28;20083;-41
2022/04/27 02:09:37;;;;;;;100.45;30.88;;;;;;;;;;5039704;28;20032;-41
2022/04/27 02:12:05;;;;;;;104.22;34.08;;;;;;;;;;5040640;28;20025;-41
2022/04/27 02:14:32;;;;;;;103.45;32.50;;;;;;;;;;5039773;28;20029;-41
2022/04/27 02:16:59;;;;;;;90.32;30.80;;;;;;;;;;5039517;28;20391;-41
2022/04/27 02:19:26;;;;;;;97.18;31.17;;;;;;;;;;5044886;28;20033;-41
2022/04/27 02:21:53;;;;;;;86.53;26.02;;;;;;;;;;5050502;28;20374;-41
2022/04/27 02:24:20;;;;;;;86.88;28.75;;;;;;;;;;5050471;28;20651;-41
2022/04/27 02:26:47;;;;;;;86.68;27.73;;;;;;;;;;5050914;28;20037;-41
2022/04/27 02:29:16;;;;;;;87.30;27.02;;;;;;;;;;5051003;28;20029;-41
2022/04/27 02:31:43;;;;;;;81.47;26.75;;;;;;;;;;5050279;28;20049;-41
2022/04/27 02:34:10;;;;;;;79.32;26.25;;;;;;;;;;5051182;28;20040;-41
2022/04/27 02:36:37;;;;;;;73.63;25.65;;;;;;;;;;5052963;28;20079;-41
2022/04/27 02:39:04;;;;;;;66.90;23.58;;;;;;;;;;5055117;28;20391;-41
2022/04/27 02:41:31;;;;;;;78.00;26.20;;;;;;;;;;5054536;28;20091;-41
2022/04/27 02:43:58;;;;;;;78.45;24.70;;;;;;;;;;5054833;28;20425;-41
2022/04/27 02:46:25;;;;;;;65.90;22.70;;;;;;;;;;5054891;28;20487;-41
2022/04/27 02:51:49;;;;;;;66.85;20.98;;;;;;;;;;5054542;28;20099;-41
2022/04/27 02:54:17;;;;;;;67.13;21.05;;;;;;;;;;5054438;28;20048;-41
2022/04/27 02:56:44;;;;;;;61.53;20.58;;;;;;;;;;5053921;28;20044;-41
2022/04/27 02:59:11;;;;;;;60.83;20.73;;;;;;;;;;5054365;28;20029;-41
2022/04/27 03:01:41;;;;;;;61.97;20.40;;;;;;;;;;5055422;28;20143;-41
2022/04/27 03:04:09;;;;;;;61.05;21.60;;;;;;;;;;5054246;28;20028;-41
2022/04/27 03:06:36;;;;;;;56.65;19.02;;;;;;;;;;5055231;28;20036;-41
2022/04/27 03:09:03;;;;;;;50.28;18.17;;;;;;;;;;5054230;28;20033;-41
2022/04/27 03:11:30;;;;;;;58.60;19.77;;;;;;;;;;5054318;28;20029;-41
2022/04/27 03:13:57;;;;;;;57.60;19.48;;;;;;;;;;5054941;28;20033;-41
2022/04/27 03:16:24;;;;;;;52.83;19.45;;;;;;;;;;5054490;28;20051;-41
2022/04/27 03:18:51;;;;;;;51.10;18.10;;;;;;;;;;5054844;28;20086;-41
2022/04/27 03:21:18;;;;;;;54.38;19.05;;;;;;;;;;5054266;28;20037;-41
2022/04/27 03:23:45;;;;;;;49.70;17.27;;;;;;;;;;5054786;28;20513;-41
2022/04/27 03:26:12;;;;;;;56.67;19.13;;;;;;;;;;5054182;28;20040;-41
2022/04/27 03:28:39;;;;;;;48.88;16.17;;;;;;;;;;5054628;28;20029;-41
2022/04/27 03:31:05;;;;;;;52.45;17.33;;;;;;;;;;5052507;28;20537;-41
2022/04/27 03:33:32;;;;;;;45.80;17.27;;;;;;;;;;5054385;28;20033;-41
2022/04/27 03:35:59;;;;;;;45.47;16.33;;;;;;;;;;5054607;28;20025;-40
2022/04/27 03:38:26;;;;;;;49.50;17.05;;;;;;;;;;5053679;28;20036;-41
2022/04/27 03:40:53;;;;;;;42.35;15.43;;;;;;;;;;5054596;28;20040;-41
2022/04/27 03:43:20;;;;;;;46.28;15.70;;;;;;;;;;5054752;28;20040;-41
2022/04/27 03:45:47;;;;;;;42.97;15.68;;;;;;;;;;5053888;28;20055;-41
2022/04/27 03:48:14;;;;;;;48.78;15.30;;;;;;;;;;5053902;28;20032;-41
2022/04/27 03:50:41;;;;;;;42.38;14.52;;;;;;;;;;5054363;28;20037;-41
2022/04/27 03:53:08;;;;;;;41.92;14.75;;;;;;;;;;5053667;28;20171;-41
2022/04/27 03:55:35;;;;;;;40.22;13.82;;;;;;;;;;5054651;28;20501;-41
2022/04/27 03:58:03;;;;;;;40.67;14.10;;;;;;;;;;5053785;28;20028;-41
2022/04/27 04:00:30;;;;;;;39.45;13.20;;;;;;;;;;5054350;28;20117;-41
2022/04/27 04:02:59;;;;;;;38.78;13.52;;;;;;;;;;5054298;28;20039;-41
2022/04/27 04:05:26;;;;;;;33.45;12.15;;;;;;;;;;5053359;28;20052;-41
2022/04/27 04:07:53;;;;;;;37.55;13.73;;;;;;;;;;5054194;28;20032;-41
2022/04/27 04:10:20;;;;;;;39.42;12.63;;;;;;;;;;5053213;28;20044;-41
2022/04/27 04:12:47;;;;;;;39.10;13.25;;;;;;;;;;5054034;28;20029;-41
2022/04/27 04:15:14;;;;;;;35.78;13.23;;;;;;;;;;5053703;28;20132;-41
2022/04/27 04:17:45;;;;;;;31.88;11.43;;;;;;;;;;5052346;28;20069;-41
2022/04/27 04:20:17;;;;;;;27.33;10.95;;;;;;;;;;5053224;28;20040;-41
2022/04/27 04:22:44;;;;;;;32.70;12.73;;;;;;;;;;5053551;28;20113;-41
2022/04/27 04:30:42;;;;;;;30.33;11.40;;;;;;;;;;5054048;28;20048;-41
2022/04/27 04:33:10;;;;;;;30.45;10.70;;;;;;;;;;5045534;28;20162;-41
2022/04/27 04:35:37;;;;;;;26.02;10.27;;;;;;;;;;5053781;28;20111;-41
2022/04/27 04:38:04;;;;;;;29.05;10.75;;;;;;;;;;5053510;28;20037;-41
2022/04/27 04:40:32;;;;;;;28.25;10.52;;;;;;;;;;5053504;28;20028;-41
2022/04/27 04:42:59;;;;;;;31.25;9.98;;;;;;;;;;5052879;28;20036;-41
2022/04/27 04:45:26;;;;;;;26.00;9.90;;;;;;;;;;5052968;28;20029;-41
2022/04/27 04:47:53;;;;;;;25.88;10.10;;;;;;;;;;5053300;28;20033;-41
2022/04/27 04:50:20;;;;;;;24.52;9.55;;;;;;;;;;5052734;28;20060;-41
2022/04/27 04:52:47;;;;;;;24.45;9.35;;;;;;;;;;5052838;28;20041;-41
2022/04/27 04:55:14;;;;;;;25.60;9.52;;;;;;;;;;5053174;28;20043;-41
2022/04/27 04:57:41;;;;;;;25.90;9.52;;;;;;;;;;5053370;28;20037;-41
2022/04/27 05:00:09;;;;;;;25.15;9.50;;;;;;;;;;5051307;28;20029;-41
2022/04/27 05:02:36;;;;;;;26.02;10.32;;;;;;;;;;5052853;28;20021;-41
2022/04/27 05:05:04;;;;;;;23.25;9.40;;;;;;;;;;5053188;28;20032;-41
2022/04/27 05:07:31;;;;;;;25.80;9.45;;;;;;;;;;5052707;28;20037;-41
2022/04/27 05:09:59;;;;;;;20.73;9.10;;;;;;;;;;5052769;28;20110;-41
2022/04/27 05:12:26;;;;;;;23.15;9.02;;;;;;;;;;5052483;28;20437;-41
2022/04/27 05:14:53;;;;;;;19.65;7.70;;;;;;;;;;5053075;28;20033;-41
2022/04/27 05:17:22;;;;;;;19.35;7.63;;;;;;;;;;5052335;28;20025;-41
2022/04/27 05:19:51;;;;;;;24.88;8.65;;;;;;;;;;5052386;28;20048;-41
2022/04/27 05:22:18;;;;;;;21.35;8.02;;;;;;;;;;5052347;28;20068;-41
2022/04/27 05:24:45;;;;;;;18.92;8.15;;;;;;;;;;5052644;28;20025;-41
2022/04/27 05:27:12;;;;;;;18.90;7.18;;;;;;;;;;5052602;28;20500;-41
2022/04/27 05:32:27;;;;;;;18.67;7.53;;;;;;;;;;5052783;28;20056;-41
2022/04/27 05:34:54;;;;;;;22.02;8.82;;;;;;;;;;5052216;28;20040;-41
2022/04/27 05:37:21;;;;;;;17.55;6.90;;;;;;;;;;5052376;28;20036;-41
2022/04/27 05:39:48;;;;;;;18.63;7.25;;;;;;;;;;5052757;28;20437;-41
2022/04/27 05:42:15;;;;;;;18.75;7.85;;;;;;;;;;5050701;28;20036;-41
2022/04/27 05:44:42;;;;;;;15.82;6.65;;;;;;;;;;5051822;28;20029;-41
2022/04/27 05:47:09;;;;;;;14.70;6.43;;;;;;;;;;5052359;28;20059;-41
2022/04/27 05:49:36;;;;;;;16.17;6.93;;;;;;;;;;5050648;28;20036;-41
2022/04/27 05:52:03;;;;;;;18.75;7.30;;;;;;;;;;5051917;28;20040;-41
2022/04/27 05:54:30;;;;;;;14.25;5.95;;;;;;;;;;5052011;28;20037;-41
2022/04/27 05:56:57;;;;;;;15.23;6.53;;;;;;;;;;5051800;28;20025;-41
2022/04/27 05:59:24;;;;;;;19.17;7.30;;;;;;;;;;5052312;28;20025;-41
2022/04/27 06:01:51;;;;;;;16.30;6.97;;;;;;;;;;5051367;28;20759;-41
2022/04/27 06:04:18;;;;;;;15.40;6.70;;;;;;;;;;5051724;28;20475;-41
2022/04/27 06:06:45;;;;;;;17.15;6.50;;;;;;;;;;5051855;28;20032;-41
2022/04/27 06:09:13;;;;;;;14.23;6.10;;;;;;;;;;5051922;28;20078;-41
2022/04/27 06:11:40;;;;;;;15.98;5.85;;;;;;;;;;5050817;28;20032;-41
2022/04/27 06:14:07;;;;;;;14.70;6.50;;;;;;;;;;5052192;28;20091;-41
2022/04/27 06:16:34;;;;;;;13.52;6.30;;;;;;;;;;5051593;28;20044;-41
2022/04/27 06:19:02;;;;;;;15.45;6.22;;;;;;;;;;5051714;28;20450;-41
2022/04/27 06:21:31;;;;;;;13.20;5.90;;;;;;;;;;5051544;28;20028;-41
2022/04/27 06:23:59;;;;;;;13.73;6.07;;;;;;;;;;5052039;28;20036;-41
2022/04/27 06:26:26;;;;;;;15.93;5.57;;;;;;;;;;5051439;28;20028;-41
2022/04/27 06:28:53;;;;;;;13.00;5.75;;;;;;;;;;5051803;28;20025;-41
2022/04/27 06:31:20;;;;;;;11.65;5.40;;;;;;;;;;5185243;22;20024;-41
2022/04/27 06:33:47;;;;;;;11.18;5.30;;;;;;;;;;5056985;28;20104;-41
2022/04/27 06:36:14;;;;;;;11.45;5.40;;;;;;;;;;5050816;28;20048;-41
2022/04/27 06:38:41;;;;;;;11.90;4.78;;;;;;;;;;5051706;28;20478;-41
2022/04/27 06:41:08;;;;;;;12.93;5.40;;;;;;;;;;5050703;28;20025;-41
2022/04/27 06:43:35;;;;;;;13.27;5.22;;;;;;;;;;5050565;28;21122;-41
2022/04/27 06:46:02;;;;;;;11.60;4.88;;;;;;;;;;5052250;28;20102;-41
2022/04/27 06:48:30;;;;;;;10.65;5.25;;;;;;;;;;5051712;28;20021;-41
2022/04/27 06:50:57;;;;;;;9.63;4.63;;;;;;;;;;5051245;28;20048;-41
2022/04/27 06:53:24;;;;;;;12.88;4.97;;;;;;;;;;5050830;28;20068;-41
2022/04/27 06:55:51;;;;;;;11.55;5.15;;;;;;;;;;5052050;28;20478;-41
2022/04/27 06:58:18;;;;;;;9.88;4.35;;;;;;;;;;5051520;28;20027;-41
2022/04/27 07:00:45;;;;;;;11.52;4.80;;;;;;;;;;5051315;28;20051;-41
2022/04/27 07:03:12;;;;;;;10.63;4.47;;;;;;;;;;5050563;28;20367;-41
2022/04/27 07:05:39;;;;;;;9.77;3.97;;;;;;;;;;5051344;28;20402;-41
2022/04/27 07:08:06;;;;;;;10.50;4.40;;;;;;;;;;5051234;28;20029;-41
2022/04/27 07:10:36;;;;;;;9.90;3.95;;;;;;;;;;5052178;28;20059;-41
2022/04/27 07:13:04;;;;;;;8.57;4.47;;;;;;;;;;5050519;28;20060;-41
2022/04/27 07:15:31;;;;;;;9.15;4.30;;;;;;;;;;5050037;28;20036;-41
2022/04/27 07:17:58;;;;;;;10.13;4.18;;;;;;;;;;5051261;28;20059;-41
2022/04/27 07:20:25;;;;;;;8.73;4.13;;;;;;;;;;5050678;28;20040;-41
2022/04/27 07:22:52;;;;;;;10.57;4.00;;;;;;;;;;5052436;28;20479;-41
2022/04/27 07:25:19;;;;;;;9.68;4.13;;;;;;;;;;5054841;28;20033;-41
2022/04/27 07:27:46;;;;;;;7.38;3.70;;;;;;;;;;5054966;28;20033;-41
2022/04/27 07:30:13;;;;;;;10.10;4.07;;;;;;;;;;5054485;28;20028;-41
2022/04/27 07:32:40;;;;;;;9.48;3.90;;;;;;;;;;5050703;28;20045;-41
2022/04/27 07:35:07;;;;;;;8.43;3.90;;;;;;;;;;5053686;28;20037;-41
2022/04/27 07:37:37;;;;;;;9.93;3.97;;;;;;;;;;5054340;28;20100;-41
2022/04/27 07:40:07;;;;;;;9.40;3.80;;;;;;;;;;5054017;28;20051;-41
2022/04/27 07:42:34;;;;;;;9.85;3.90;;;;;;;;;;5054229;28;20033;-41
2022/04/27 07:45:01;;;;;;;9.45;3.63;;;;;;;;;;5054682;28;20025;-41
2022/04/27 07:47:28;;;;;;;7.43;3.40;;;;;;;;;;5053564;28;20025;-41
2022/04/27 07:49:55;;;;;;;9.45;3.33;;;;;;;;;;5054636;28;20491;-41
2022/04/27 07:52:22;;;;;;;7.03;3.08;;;;;;;;;;5053767;28;20071;-41
2022/04/27 07:54:49;;;;;;;7.55;3.33;;;;;;;;;;5054320;28;20033;-41
2022/04/27 07:57:16;;;;;;;7.43;3.95;;;;;;;;;;5053376;28;20386;-41
2022/04/27 07:59:43;;;;;;;8.77;3.67;;;;;;;;;;5053457;28;20375;-41
2022/04/27 08:02:10;;;;;;;6.53;2.67;;;;;;;;;;5054418;28;20017;-41
2022/04/27 08:04:36;;;;;;;8.55;3.88;;;;;;;;;;5054205;28;20013;-41
2022/04/27 08:07:04;;;;;;;6.72;3.17;;;;;;;;;;5053843;28;20028;-41
2022/04/27 08:09:30;;;;;;;8.23;3.70;;;;;;;;;;5053761;28;20112;-41
2022/04/27 08:11:57;;;;;;;7.20;3.10;;;;;;;;;;5054059;28;20025;-41
2022/04/27 08:14:24;;;;;;;6.97;3.08;;;;;;;;;;5053416;28;20455;-41
2022/04/27 08:16:52;;;;;;;5.97;2.83;;;;;;;;;;5054165;28;20025;-41
2022/04/27 08:19:20;;;;;;;7.43;3.00;;;;;;;;;;5053374;28;20025;-41
2022/04/27 08:21:48;;;;;;;9.07;3.20;;;;;;;;;;5053914;28;20033;-41
2022/04/27 08:24:18;;;;;;;7.43;2.88;;;;;;;;;;5054417;28;20029;-39
2022/04/27 08:26:52;;;;;;;8.90;3.38;;;;;;;;;;5051110;28;20524;-41
2022/04/27 08:29:19;;;;;;;7.65;3.10;;;;;;;;;;5052716;28;20482;-41
2022/04/27 08:31:45;;;;;;;5.90;2.45;;;;;;;;;;5052923;28;20033;-41
2022/04/27 08:34:12;;;;;;;4.70;2.38;;;;;;;;;;5053227;28;20040;-41
2022/04/27 08:36:39;;;;;;;6.78;2.40;;;;;;;;;;5053722;28;20021;-41
2022/04/27 08:39:06;;;;;;;5.43;2.65;;;;;;;;;;5052903;28;20032;-41
2022/04/27 08:41:33;;;;;;;5.32;2.58;;;;;;;;;;5053097;28;20029;-41
2022/04/27 08:44:00;;;;;;;6.20;2.60;;;;;;;;;;5053395;28;20029;-41
2022/04/27 08:46:29;;;;;;;4.63;2.33;;;;;;;;;;5052677;28;20029;-41
2022/04/27 08:48:56;;;;;;;5.85;2.38;;;;;;;;;;5052883;28;20445;-41
2022/04/27 08:51:23;;;;;;;5.93;2.55;;;;;;;;;;5052989;28;20029;-41
2022/04/27 08:53:50;;;;;;;5.68;2.58;;;;;;;;;;5052687;28;20060;-41
2022/04/27 08:56:17;;;;;;;4.10;2.20;;;;;;;;;;5053110;28;20107;-41
2022/04/27 08:58:44;;;;;;;4.53;2.00;;;;;;;;;;5052775;28;20394;-41
2022/04/27 09:01:12;;;;;;;4.57;1.98;;;;;;;;;;5052688;28;20025;-41
2022/04/27 09:03:39;;;;;;;3.75;2.17;;;;;;;;;;5053111;28;20112;-41
2022/04/27 09:06:07;;;;;;;5.22;2.47;;;;;;;;;;5051121;28;20431;-41
2022/04/27 09:08:40;;;;;;;5.10;2.33;;;;;;;;;;5052264;28;20217;-41
2022/04/27 09:11:26;;;;;;;4.32;2.05;;;;;;;;;;5052857;28;20025;-41
2022/04/27 09:13:55;;;;;;;3.13;1.90;;;;;;;;;;5052706;28;20028;-41
2022/04/27 09:16:23;;;;;;;5.03;2.08;;;;;;;;;;5051311;28;20021;-41
2022/04/27 09:21:58;;;;;;;4.20;1.77;;;;;;;;;;5052919;28;20093;-41
2022/04/27 09:24:31;;;;;;;5.30;2.00;;;;;;;;;;5054643;28;20481;-41
2022/04/27 09:27:04;;;;;;;3.45;1.75;;;;;;;;;;5052711;28;20099;-41
2022/04/27 09:29:35;;;;;;;3.83;2.05;;;;;;;;;;5051996;28;20036;-41
2022/04/27 09:32:10;;;;;;;3.42;1.63;;;;;;;;;;5052105;28;20045;-41
2022/04/27 09:34:48;;;;;;;3.05;1.45;;;;;;;;;;5051854;28;20029;-41
2022/04/27 09:37:16;;;;;;;4.18;1.60;;;;;;;;;;5052244;28;20895;-41
2022/04/27 09:39:46;;;;;;;3.65;1.70;;;;;;;;;;5051745;28;20055;-41
2022/04/27 09:42:14;;;;;;;6.47;1.60;;;;;;;;;;5051916;28;20108;-41
2022/04/27 09:44:42;;;;;;;3.85;1.67;;;;;;;;;;5051880;28;20036;-41
2022/04/27 09:47:10;;;;;;;4.57;1.60;;;;;;;;;;5051118;28;20033;-41
2022/04/27 09:49:41;;;;;;;2.25;1.40;;;;;;;;;;5050896;28;20037;-41
2022/04/27 09:52:12;;;;;;;5.00;1.92;;;;;;;;;;5052234;28;20025;-41
2022/04/27 09:54:44;;;;;;;3.28;1.30;;;;;;;;;;5051813;28;20109;-41
2022/04/27 09:57:13;;;;;;;4.10;1.40;;;;;;;;;;5052108;28;20101;-41
2022/04/27 09:59:40;;;;;;;3.30;1.75;;;;;;;;;;5051458;28;20029;-41
2022/04/27 10:02:13;;;;;;;3.35;1.55;;;;;;;;;;5052210;28;20035;-41
2022/04/27 10:04:42;;;;;;;3.85;1.50;;;;;;;;;;5051595;28;20103;-41
2022/04/27 10:07:12;;;;;;;3.33;1.40;;;;;;;;;;5051771;28;20437;-41
2022/04/27 10:09:43;;;;;;;3.75;1.20;;;;;;;;;;5052125;28;20095;-41
2022/04/27 10:12:11;;;;;;;3.20;1.63;;;;;;;;;;5051531;28;20375;-41
2022/04/27 10:14:38;;;;;;;3.25;1.45;;;;;;;;;;5051314;28;20037;-41
2022/04/27 10:17:05;;;;;;;1.98;1.35;;;;;;;;;;5051550;28;20048;-41
2022/04/27 10:19:32;;;;;;;2.78;1.30;;;;;;;;;;5052011;28;20025;-41
2022/04/27 10:22:01;;;;;;;3.00;1.65;;;;;;;;;;5051220;28;20029;-41
2022/04/27 10:24:37;;;;;;;3.10;1.30;;;;;;;;;;5051358;28;20036;-41
2022/04/27 10:27:18;;;;;;;3.83;1.42;;;;;;;;;;5051852;28;20029;-41
2022/04/27 10:30:01;;;;;;;4.45;1.45;;;;;;;;;;5051432;28;20033;-41
2022/04/27 10:32:47;;;;;;;4.78;1.17;;;;;;;;;;5051298;28;20068;-41
2022/04/27 10:35:21;;;;;;;5.20;1.40;;;;;;;;;;5062683;28;20090;-41
2022/04/27 10:37:54;;;;;;;3.03;1.13;;;;;;;;;;5050808;28;20506;-41
2022/04/27 10:40:38;;;;;;;3.10;1.30;;;;;;;;;;5052969;28;20490;-41
2022/04/27 10:43:12;;;;;;;2.42;1.30;;;;;;;;;;5051394;28;20055;-41
2022/04/27 10:45:40;;;;;;;4.45;1.52;;;;;;;;;;5051664;28;20048;-41
2022/04/27 10:48:08;;;;;;;2.92;1.30;;;;;;;;;;5051260;28;20436;-41
2022/04/27 10:50:36;;;;;;;2.15;0.88;;;;;;;;;;5051853;28;20426;-41
2022/04/27 10:53:19;;;;;;;3.53;1.40;;;;;;;;;;5051778;28;20483;-41
2022/04/27 10:55:54;;;;;;;2.08;1.00;;;;;;;;;;5050749;28;20055;-41
2022/04/27 10:58:21;;;;;;;2.10;1.10;;;;;;;;;;5052736;28;20028;-41
2022/04/27 11:01:03;;;;;;;1.92;1.23;;;;;;;;;;5054626;28;20017;-42
2022/04/27 11:03:31;;;;;;;3.33;1.38;;;;;;;;;;5034068;28;20368;-41
2022/04/27 11:06:01;;;;;;;3.30;1.27;;;;;;;;;;5034469;28;20017;-41
2022/04/27 11:08:37;;;;;;;2.50;1.02;;;;;;;;;;5035054;28;20044;-41
2022/04/27 11:11:06;;;;;;;2.95;1.30;;;;;;;;;;5034259;28;20025;-41
2022/04/27 11:13:33;;;;;;;3.75;1.00;;;;;;;;;;5034790;28;20112;-41
2022/04/27 11:16:10;;;;;;;2.80;1.20;;;;;;;;;;5034875;28;20428;-41
2022/04/27 11:18:55;;;;;;;2.72;1.08;;;;;;;;;;5034716;28;20024;-41
2022/04/27 11:21:22;;;;;;;3.83;1.08;;;;;;;;;;5034600;28;20515;-41
2022/04/27 11:23:49;;;;;;;2.78;1.25;;;;;;;;;;5033968;28;20475;-41
2022/04/27 11:26:16;;;;;;;2.72;1.13;;;;;;;;;;5034207;28;20100;-41
2022/04/27 11:28:44;;;;;;;4.50;0.93;;;;;;;;;;5034320;28;20029;-41
2022/04/27 11:31:15;;;;;;;3.58;1.40;;;;;;;;;;5034056;28;20036;-41
2022/04/27 11:33:42;;;;;;;2.28;0.98;;;;;;;;;;5013071;28;20385;-41
2022/04/27 11:36:21;;;;;;;2.47;1.05;;;;;;;;;;5013903;28;20032;-41
2022/04/27 11:38:48;;;;;;;2.67;1.17;;;;;;;;;;5014193;28;20446;-41
2022/04/27 11:41:23;;;;;;;2.90;0.90;;;;;;;;;;5014266;28;20033;-41
2022/04/27 11:43:53;;;;;;;7.68;1.27;;;;;;;;;;5014269;28;20479;-41
2022/04/27 11:46:20;;;;;;;4.88;1.67;;;;;;;;;;5034149;28;20045;-41
2022/04/27 11:48:48;;;;;;;16.63;1.63;;;;;;;;;;5018442;28;21006;-47
2022/04/27 11:51:15;;;;;;;58.95;3.70;;;;;;;;;;5012778;28;20112;-46
2022/04/27 11:53:49;;;;;;;62.25;6.03;;;;;;;;;;5013409;28;20046;-45
2022/04/27 11:56:17;;;;;;;32.90;3.72;;;;;;;;;;5014326;28;20052;-43
2022/04/27 11:58:48;;;;;;;32.40;2.47;;;;;;;;;;5013573;28;20149;-43
2022/04/27 12:01:22;;;;;;;17.58;2.67;;;;;;;;;;5013907;28;20518;-47
2022/04/27 12:03:52;;;;;;;21.25;2.90;;;;;;;;;;5014329;28;20033;-47
2022/04/27 12:06:20;;;;;;;17.00;2.60;;;;;;;;;;5013793;28;20034;-48
2022/04/27 12:08:47;;;;;;;10.77;2.05;;;;;;;;;;5012617;28;20063;-47
2022/04/27 12:11:23;;;;;;;9.48;2.20;;;;;;;;;;5013049;28;20521;-48
2022/04/27 12:13:51;;;;;;;15.27;2.40;;;;;;;;;;5013989;28;20038;-47
2022/04/27 12:16:19;;;;;;;13.52;2.35;;;;;;;;;;5013731;28;20037;-47
2022/04/27 12:18:53;;;;;;;9.45;2.10;;;;;;;;;;5014199;28;20048;-48
2022/04/27 12:21:24;;;;;;;10.30;2.00;;;;;;;;;;5011755;28;20439;-47
2022/04/27 12:23:52;;;;;;;8.52;2.33;;;;;;;;;;5013325;28;20053;-48
2022/04/27 12:26:19;;;;;;;9.85;1.63;;;;;;;;;;5013949;28;20030;-47
2022/04/27 12:28:49;;;;;;;6.55;1.60;;;;;;;;;;5012634;28;20053;-47
2022/04/27 12:31:19;;;;;;;8.05;2.08;;;;;;;;;;5012878;28;20073;-47
2022/04/27 12:33:48;;;;;;;9.60;1.75;;;;;;;;;;5031944;28;20141;-47
2022/04/27 12:39:02;;;;;;;6.47;2.10;;;;;;;;;;5033318;28;20450;-48
2022/04/27 12:41:30;;;;;;;6.85;1.60;;;;;;;;;;5033054;28;20034;-47
2022/04/27 12:44:07;;;;;;;6.38;1.92;;;;;;;;;;5031038;28;20402;-48
2022/04/27 12:46:35;;;;;;;7.22;2.10;;;;;;;;;;5032542;28;20037;-47
2022/04/27 12:49:02;;;;;;;8.85;1.92;;;;;;;;;;5033201;28;20033;-48
2022/04/27 12:51:31;;;;;;;8.02;1.67;;;;;;;;;;5032076;28;20025;-48
2022/04/27 12:53:58;;;;;;;9.68;1.70;;;;;;;;;;5032024;28;20084;-48
2022/04/27 12:56:31;;;;;;;6.40;1.83;;;;;;;;;;5033055;28;20037;-47
2022/04/27 12:59:08;;;;;;;47.63;3.45;;;;;;;;;;5032218;28;20121;-42
2022/04/27 13:01:36;;;;;;;18.73;2.58;;;;;;;;;;5026362;28;20068;-45
2022/04/27 13:04:03;;;;;;;12.65;2.40;;;;;;;;;;5048962;28;20546;-44
2022/04/27 13:06:30;;;;;;;11.52;2.00;;;;;;;;;;5052160;28;20033;-44
2022/04/27 13:11:55;;;;;;;14.50;2.53;;;;;;;;;;5034752;28;20091;-45
2022/04/27 13:14:22;;;;;;;16.08;2.45;;;;;;;;;;5036329;28;20037;-45
2022/04/27 13:16:49;;;;;;;14.48;2.33;;;;;;;;;;5039421;28;20069;-44
2022/04/27 13:19:19;;;;;;;19.33;3.05;;;;;;;;;;5019406;28;20054;-44
2022/04/27 13:21:47;;;;;;;31.52;3.97;;;;;;;;;;5015154;28;20121;-49
2022/04/27 13:24:14;;;;;;;28.95;3.10;;;;;;;;;;5012521;28;20037;-48
2022/04/27 13:26:41;;;;;;;26.52;2.92;;;;;;;;;;5015859;28;20029;-49
2022/04/27 13:29:09;;;;;;;23.13;2.80;;;;;;;;;;5019768;28;20526;-45
2022/04/27 13:31:36;;;;;;;16.13;3.03;;;;;;;;;;5010612;28;20045;-45
2022/04/27 13:34:05;;;;;;;15.05;2.30;;;;;;;;;;5013342;28;20488;-49
2022/04/27 13:36:32;;;;;;;9.05;2.28;;;;;;;;;;5011179;28;20069;-47
2022/04/27 13:38:59;;;;;;;31.92;3.45;;;;;;;;;;5009802;28;20030;-48
2022/04/27 13:41:26;;;;;;;22.52;3.05;;;;;;;;;;5011344;28;20399;-48
2022/04/27 13:43:55;;;;;;;18.67;3.25;;;;;;;;;;5011368;28;20040;-48
2022/04/27 13:46:23;;;;;;;20.17;2.55;;;;;;;;;;5010956;28;20059;-44
2022/04/27 13:48:50;;;;;;;14.38;2.60;;;;;;;;;;5009382;28;20046;-43
2022/04/27 13:51:17;;;;;;;15.02;2.25;;;;;;;;;;5009353;28;20057;-43
2022/04/27 13:53:44;;;;;;;13.60;2.50;;;;;;;;;;5010432;28;20050;-41
2022/04/27 13:56:11;;;;;;;16.23;1.90;;;;;;;;;;5011012;28;20648;-41
2022/04/27 13:58:38;;;;;;;16.50;2.10;;;;;;;;;;5009822;28;20061;-40
2022/04/27 14:01:05;;;;;;;16.27;2.17;;;;;;;;;;5009120;28;20068;-41
2022/04/27 14:03:32;;;;;;;19.00;2.88;;;;;;;;;;5008956;28;20038;-43
2022/04/27 14:05:59;;;;;;;16.63;2.17;;;;;;;;;;5013948;28;20755;-41
2022/04/27 14:08:26;;;;;;;23.10;2.55;;;;;;;;;;5015837;28;20109;-41
2022/04/27 14:10:54;;;;;;;11.32;2.00;;;;;;;;;;5010459;28;20091;-39
2022/04/27 14:13:22;;;;;;;15.27;2.50;;;;;;;;;;4991193;28;20046;-41
2022/04/27 14:18:34;;;;;;;17.40;2.00;;;;;;;;;;5011017;28;20069;-40
2022/04/27 14:21:01;;;;;;;11.05;1.75;;;;;;;;;;5009853;28;20034;-41
2022/04/27 14:23:29;;;;;;;12.15;2.13;;;;;;;;;;5010752;28;20044;-42
2022/04/27 14:25:56;;;;;;;15.30;2.05;;;;;;;;;;5008608;28;20526;-43
2022/04/27 14:28:23;;;;;;;16.52;2.90;;;;;;;;;;5012223;28;20065;-44
2022/04/27 14:30:50;;;;;;;14.70;2.17;;;;;;;;;;5010003;28;20087;-44
2022/04/27 14:33:18;;;;;;;12.32;2.00;;;;;;;;;;5031050;28;20049;-41
2022/04/27 14:35:46;;;;;;;13.05;2.15;;;;;;;;;;5030755;28;20043;-42
2022/04/27 14:38:14;;;;;;;17.23;1.83;;;;;;;;;;5032066;28;20100;-41
2022/04/27 14:40:41;;;;;;;16.13;2.55;;;;;;;;;;5034597;28;20495;-45
2022/04/27 14:43:09;;;;;;;18.80;2.28;;;;;;;;;;5017841;28;20040;-42
2022/04/27 14:45:36;;;;;;;22.88;3.15;;;;;;;;;;5018862;28;20025;-41
2022/04/27 14:48:03;;;;;;;15.73;2.42;;;;;;;;;;5031114;28;20038;-42
2022/04/27 14:50:30;;;;;;;16.35;2.95;;;;;;;;;;5014741;28;20037;-42
2022/04/27 14:52:57;;;;;;;11.25;2.33;;;;;;;;;;5022183;28;20482;-42
2022/04/27 14:55:24;;;;;;;21.75;2.40;;;;;;;;;;5022641;28;20037;-42
2022/04/27 14:57:51;;;;;;;15.35;2.03;;;;;;;;;;5022932;28;20391;-42
2022/04/27 15:00:19;;;;;;;9.55;1.92;;;;;;;;;;5015319;28;20476;-41
2022/04/27 15:02:46;;;;;;;13.70;2.05;;;;;;;;;;5015273;28;20042;-41